Montrose Regional Airport Montrose US
ICAO: KMTJ
IATA: MTJ
Category: Medium
Scheduled Services: No

Elevation: 5759 ft
TransAlt. 18000 ft.

Airport Communications:
ASOS:135.225
DENVER CNTR:125.35
DENVER RDO:122.65
CTAF/UNICOM:122.8

KMTJ Zoom In..

If you have problems with the map follow the link
https://www.worldairports.se/pages/airport.php?
ICAO=KMTJ

Runways:

(A) RW 13 length 7510 ft width 100 ft
---- / hdg 127

(B) RW 17 length 10000 ft width 150 ft
ILS 111.30 / hdg 168

(C) RW 31 length 7510 ft width 100 ft
---- / hdg 307

(D) RW 35 length 10000 ft width 150 ft
---- / hdg 348

Location; KMTJ
Day. 28 / Time. 12.53 Zulu
* Altimeter: 30.31
* Temperature: -09° c. -15.8°f.
* Wind from: 140° Speed 04 kn.
Dewpoint: -11° c.
Visibility: 10 Statute Miles.
Clouds: Overcast 300 ft.

KMTJ 281253Z AUTO 14004KT 10SM OVC003 M09/M11 A3031 RMK AO2 SLP293 T10941106


Wind From 140°
Speed 04 kn.

 
 
jpsmedia worldairports.se 2020   terms of use